createdAt,value
2018-05-21T00:00:46.840Z,14.60
2018-05-21T00:03:20.942Z,14.50
2018-05-21T00:05:54.950Z,14.50
2018-05-21T00:08:28.800Z,14.50
2018-05-21T00:11:03.213Z,14.50
2018-05-21T00:13:38.064Z,14.30
2018-05-21T00:16:12.470Z,14.30
2018-05-21T00:18:46.587Z,14.30
2018-05-21T00:21:21.583Z,14.30
2018-05-21T00:23:55.388Z,14.30
2018-05-21T00:26:30.014Z,14.40
2018-05-21T00:29:04.790Z,14.30
2018-05-21T00:31:38.784Z,14.30
2018-05-21T00:34:14.463Z,14.40
2018-05-21T00:36:48.569Z,14.40
2018-05-21T00:39:22.902Z,14.40
2018-05-21T00:41:57.056Z,14.50
2018-05-21T00:44:31.166Z,14.50
2018-05-21T00:47:06.101Z,14.50
2018-05-21T00:49:40.130Z,14.70
2018-05-21T00:52:14.207Z,14.80
2018-05-21T00:55:02.572Z,15.00
2018-05-21T00:57:39.452Z,15.00
2018-05-21T01:00:13.780Z,14.90
2018-05-21T01:02:50.086Z,14.90
2018-05-21T01:05:25.312Z,14.90
2018-05-21T01:07:59.608Z,14.90
2018-05-21T01:10:35.244Z,15.00
2018-05-21T01:13:10.436Z,14.90
2018-05-21T01:15:45.309Z,15.00
2018-05-21T01:18:19.762Z,15.00
2018-05-21T01:20:55.172Z,15.00
2018-05-21T01:23:29.263Z,15.10
2018-05-21T01:26:03.414Z,15.10
2018-05-21T01:28:38.382Z,15.00
2018-05-21T01:31:12.309Z,14.90
2018-05-21T01:33:46.950Z,14.90
2018-05-21T01:36:21.961Z,15.10
2018-05-21T01:38:56.190Z,15.10
2018-05-21T01:41:30.343Z,15.10
2018-05-21T01:44:04.691Z,15.10
2018-05-21T01:46:39.137Z,15.10
2018-05-21T01:49:14.030Z,15.10
2018-05-21T01:51:48.415Z,15.10
2018-05-21T01:54:22.568Z,15.10
2018-05-21T01:56:56.567Z,15.20
2018-05-21T01:59:31.659Z,15.10
2018-05-21T02:02:05.923Z,15.10
2018-05-21T02:04:39.877Z,15.10
2018-05-21T02:07:14.959Z,15.00
2018-05-21T02:09:49.299Z,14.90
2018-05-21T02:12:24.073Z,14.80
2018-05-21T02:14:58.139Z,14.80
2018-05-21T02:17:32.344Z,14.80
2018-05-21T02:20:06.559Z,14.80
2018-05-21T02:22:40.670Z,14.80
2018-05-21T02:25:15.898Z,14.60
2018-05-21T02:27:50.931Z,14.60
2018-05-21T02:30:25.208Z,14.60
2018-05-21T02:32:59.499Z,14.50
2018-05-21T02:35:33.682Z,14.50
2018-05-21T02:38:08.020Z,14.50
2018-05-21T02:40:42.624Z,14.40
2018-05-21T02:43:16.977Z,14.40
2018-05-21T02:45:51.087Z,14.40
2018-05-21T02:48:25.287Z,14.30
2018-05-21T02:50:59.825Z,14.30
2018-05-21T02:53:35.313Z,14.30
2018-05-21T02:56:10.525Z,14.20
2018-05-21T02:58:45.647Z,14.20
2018-05-21T03:01:19.896Z,14.10
2018-05-21T03:03:54.795Z,14.10
2018-05-21T03:06:28.935Z,14.10
2018-05-21T03:09:03.546Z,14.00
2018-05-21T03:11:39.135Z,13.90
2018-05-21T03:14:13.920Z,13.90
2018-05-21T03:16:48.786Z,13.90
2018-05-21T03:19:22.753Z,13.90
2018-05-21T03:21:56.617Z,13.90
2018-05-21T03:24:31.576Z,13.80
2018-05-21T03:27:05.408Z,13.70
2018-05-21T03:29:39.287Z,13.60
2018-05-21T03:32:13.128Z,13.60
2018-05-21T03:34:48.227Z,13.50
2018-05-21T03:37:22.476Z,13.50
2018-05-21T03:39:57.537Z,13.50
2018-05-21T03:42:32.399Z,13.40
2018-05-21T03:45:13.934Z,13.50
2018-05-21T03:47:47.782Z,13.50
2018-05-21T03:50:21.777Z,13.40
2018-05-21T03:52:59.749Z,13.30
2018-05-21T03:55:33.723Z,13.30
2018-05-21T04:01:22.110Z,13.30
2018-05-21T04:03:56.550Z,13.30
2018-05-21T04:06:31.377Z,13.40
2018-05-21T04:09:05.534Z,13.40
2018-05-21T04:11:40.425Z,13.40
2018-05-21T04:14:15.459Z,13.40
2018-05-21T04:16:51.462Z,13.50
2018-05-21T04:19:25.579Z,13.50
2018-05-21T04:22:00.616Z,13.60
2018-05-21T04:24:35.481Z,13.60
2018-05-21T04:27:09.622Z,13.60
2018-05-21T04:29:43.519Z,13.60
2018-05-21T04:32:18.350Z,13.60
2018-05-21T04:34:52.437Z,13.60
2018-05-21T04:37:27.488Z,13.70
2018-05-21T04:40:01.653Z,13.70
2018-05-21T04:42:35.753Z,13.70
2018-05-21T04:45:10.762Z,13.70
2018-05-21T04:47:46.360Z,13.90
2018-05-21T04:50:21.208Z,13.90
2018-05-21T04:52:55.359Z,13.90
2018-05-21T04:55:29.471Z,14.00
2018-05-21T04:58:03.470Z,14.00
2018-05-21T05:00:37.453Z,14.10
2018-05-21T05:03:12.740Z,14.20
2018-05-21T05:05:46.899Z,14.20
2018-05-21T05:08:22.244Z,14.20
2018-05-21T05:10:57.789Z,14.20
2018-05-21T05:13:32.110Z,14.20
2018-05-21T05:16:06.227Z,14.20
2018-05-21T05:18:40.584Z,14.00
2018-05-21T05:21:14.597Z,14.10
2018-05-21T05:23:49.123Z,14.20
2018-05-21T05:26:23.373Z,14.20
2018-05-21T05:29:01.510Z,14.30
2018-05-21T05:31:36.437Z,14.50
2018-05-21T05:34:11.371Z,14.80
2018-05-21T05:36:46.105Z,14.90
2018-05-21T05:39:21.285Z,15.10
2018-05-21T05:41:56.586Z,15.10
2018-05-21T05:44:37.558Z,15.20
2018-05-21T05:47:11.607Z,15.60
2018-05-21T05:49:46.612Z,16.50
2018-05-21T05:52:21.272Z,16.60
2018-05-21T05:54:55.412Z,16.60
2018-05-21T05:57:29.392Z,16.80
2018-05-21T06:00:03.371Z,17.00
2018-05-21T06:02:37.820Z,17.10
2018-05-21T06:05:12.773Z,17.70
2018-05-21T06:07:46.984Z,17.70
2018-05-21T06:10:20.879Z,17.90
2018-05-21T06:12:55.666Z,18.70
2018-05-21T06:15:29.677Z,18.60
2018-05-21T06:18:03.993Z,18.90
2018-05-21T06:20:37.845Z,18.80
2018-05-21T06:23:12.568Z,19.70
2018-05-21T06:25:47.096Z,20.00
2018-05-21T06:28:21.121Z,20.00
2018-05-21T06:30:54.960Z,20.20
2018-05-21T06:33:28.871Z,20.40
2018-05-21T06:36:02.774Z,20.50
2018-05-21T06:38:36.498Z,20.60
2018-05-21T06:41:10.351Z,20.90
2018-05-21T06:43:44.199Z,21.20
2018-05-21T06:46:18.104Z,21.10
2018-05-21T06:48:51.919Z,21.30
2018-05-21T06:51:25.867Z,21.80
2018-05-21T06:53:59.798Z,21.90
2018-05-21T06:56:34.236Z,21.60
2018-05-21T06:59:08.717Z,19.70
2018-05-21T07:01:42.953Z,19.30
2018-05-21T07:04:16.905Z,19.60
2018-05-21T07:06:50.855Z,20.10
2018-05-21T07:09:24.765Z,21.10
2018-05-21T07:11:58.801Z,22.20
2018-05-21T07:14:33.309Z,22.00
2018-05-21T07:17:07.244Z,22.40
2018-05-21T07:19:41.835Z,22.70
2018-05-21T07:22:16.435Z,21.90
2018-05-21T07:24:50.473Z,21.80
2018-05-21T07:27:24.224Z,22.00
2018-05-21T07:29:58.015Z,21.60
2018-05-21T07:32:31.972Z,21.20
2018-05-21T07:35:05.899Z,20.90
2018-05-21T07:37:34.884Z,21.20
2018-05-21T07:40:03.170Z,21.10
2018-05-21T07:42:31.408Z,20.60
2018-05-21T07:44:59.594Z,20.20
2018-05-21T07:47:27.836Z,20.40
2018-05-21T07:49:56.068Z,20.40
2018-05-21T07:52:25.061Z,21.00
2018-05-21T07:54:53.438Z,20.90
2018-05-21T07:57:22.458Z,20.70
2018-05-21T07:59:50.748Z,20.70
2018-05-21T08:02:19.064Z,21.20
2018-05-21T08:04:48.061Z,21.60
2018-05-21T08:07:17.077Z,21.00
2018-05-21T08:09:45.324Z,20.90
2018-05-21T08:12:14.770Z,20.30
2018-05-21T08:14:43.166Z,20.30
2018-05-21T08:17:11.517Z,20.10
2018-05-21T08:19:39.879Z,20.10
2018-05-21T08:22:09.053Z,20.60
2018-05-21T08:24:37.223Z,20.50
2018-05-21T08:27:05.490Z,20.90
2018-05-21T08:29:33.726Z,22.00
2018-05-21T08:32:02.598Z,22.40
2018-05-21T08:34:30.877Z,22.50
2018-05-21T08:36:59.065Z,22.70
2018-05-21T08:39:27.270Z,22.80
2018-05-21T08:41:55.437Z,23.00
2018-05-21T08:44:23.614Z,22.90
2018-05-21T08:46:51.840Z,22.60
2018-05-21T08:49:20.083Z,22.50
2018-05-21T08:51:48.389Z,22.40
2018-05-21T08:54:16.597Z,22.60
2018-05-21T08:56:46.329Z,22.70
2018-05-21T08:59:16.317Z,22.70
2018-05-21T09:01:44.502Z,22.70
2018-05-21T09:04:12.693Z,22.60
2018-05-21T09:06:41.681Z,22.70
2018-05-21T09:09:09.890Z,22.70
2018-05-21T09:11:38.088Z,22.70
2018-05-21T09:14:06.457Z,22.70
2018-05-21T09:16:34.715Z,22.90
2018-05-21T09:19:02.901Z,23.00
2018-05-21T09:21:31.111Z,23.00
2018-05-21T09:24:00.201Z,23.00
2018-05-21T09:26:28.394Z,23.20
2018-05-21T09:28:57.377Z,23.30
2018-05-21T09:31:25.671Z,23.30
2018-05-21T09:33:53.878Z,23.40
2018-05-21T09:36:22.066Z,23.30
2018-05-21T09:38:50.327Z,23.30
2018-05-21T09:41:18.539Z,23.30
2018-05-21T09:43:46.722Z,23.30
2018-05-21T09:46:14.928Z,23.40
2018-05-21T09:48:43.929Z,23.50
2018-05-21T09:51:12.181Z,23.40
2018-05-21T09:53:40.389Z,23.60
2018-05-21T09:56:09.060Z,23.60
2018-05-21T09:58:37.547Z,23.60
2018-05-21T10:01:05.773Z,23.60
2018-05-21T10:03:34.825Z,23.80
2018-05-21T10:06:03.029Z,23.80
2018-05-21T10:08:31.297Z,24.00
2018-05-21T10:10:59.589Z,24.30
2018-05-21T10:13:27.773Z,24.40
2018-05-21T10:15:56.798Z,24.60
2018-05-21T10:18:24.982Z,24.50
2018-05-21T10:20:53.153Z,24.70
2018-05-21T10:23:21.399Z,24.80
2018-05-21T10:25:49.626Z,24.80
2018-05-21T10:28:17.877Z,24.80
2018-05-21T10:30:46.125Z,24.80
2018-05-21T10:33:14.317Z,24.80
2018-05-21T10:35:42.503Z,24.80
2018-05-21T10:38:10.768Z,24.80
2018-05-21T10:40:38.938Z,24.80
2018-05-21T10:43:07.122Z,24.80
2018-05-21T10:45:35.323Z,24.90
2018-05-21T10:48:03.500Z,25.00
2018-05-21T10:50:31.686Z,25.20
2018-05-21T10:53:00.681Z,25.40
2018-05-21T10:55:29.661Z,25.40
2018-05-21T10:57:57.858Z,25.40
2018-05-21T11:00:26.040Z,25.40
2018-05-21T11:02:54.316Z,25.60
2018-05-21T11:05:22.487Z,25.60
2018-05-21T11:07:50.709Z,25.70
2018-05-21T11:10:18.942Z,25.70
2018-05-21T11:12:47.168Z,25.80
2018-05-21T11:15:15.413Z,25.90
2018-05-21T11:17:43.635Z,26.00
2018-05-21T11:20:12.715Z,26.00
2018-05-21T11:22:41.772Z,26.10
2018-05-21T11:25:09.953Z,26.10
2018-05-21T11:27:38.186Z,26.10
2018-05-21T11:30:06.429Z,26.20
2018-05-21T11:32:35.197Z,26.30
2018-05-21T11:35:03.401Z,26.30
2018-05-21T11:37:32.414Z,26.40
2018-05-21T11:40:01.450Z,26.40
2018-05-21T11:42:29.697Z,26.40
2018-05-21T11:44:58.662Z,26.30
2018-05-21T11:47:27.613Z,26.20
2018-05-21T11:49:55.854Z,26.20
2018-05-21T11:52:24.040Z,26.20
2018-05-21T11:54:52.229Z,26.20
2018-05-21T11:57:20.435Z,26.20
2018-05-21T11:59:49.403Z,26.30
2018-05-21T12:02:17.640Z,26.20
2018-05-21T12:04:45.846Z,26.20
2018-05-21T12:07:14.051Z,26.30
2018-05-21T12:09:43.068Z,26.30
2018-05-21T12:12:11.316Z,26.30
2018-05-21T12:14:39.527Z,26.30
2018-05-21T12:17:07.754Z,26.30
2018-05-21T12:19:35.979Z,26.40
2018-05-21T12:22:04.187Z,26.40
2018-05-21T12:24:32.366Z,26.40
2018-05-21T12:27:00.598Z,26.40
2018-05-21T12:29:28.821Z,26.40
2018-05-21T12:31:57.825Z,26.50
2018-05-21T12:34:26.761Z,26.70
2018-05-21T12:36:54.961Z,26.70
2018-05-21T12:39:23.210Z,27.00
2018-05-21T12:41:51.417Z,27.00
2018-05-21T12:44:19.689Z,27.00
2018-05-21T12:46:47.992Z,27.10
2018-05-21T12:49:16.194Z,27.10
2018-05-21T12:51:44.391Z,27.10
2018-05-21T12:54:12.579Z,27.10
2018-05-21T12:56:40.769Z,27.10
2018-05-21T12:59:08.995Z,27.20
2018-05-21T13:01:37.217Z,27.20
2018-05-21T13:04:06.207Z,27.30
2018-05-21T13:06:35.306Z,27.40
2018-05-21T13:09:04.324Z,27.50
2018-05-21T13:11:32.703Z,27.50
2018-05-21T13:14:01.633Z,28.60
2018-05-21T13:16:29.846Z,28.60
2018-05-21T13:18:58.150Z,29.90
2018-05-21T13:21:26.383Z,30.90
2018-05-21T13:23:54.574Z,31.50
2018-05-21T13:26:22.792Z,31.20
2018-05-21T13:28:51.042Z,30.30
2018-05-21T13:31:19.221Z,29.90
2018-05-21T13:33:47.400Z,30.20
2018-05-21T13:36:15.595Z,30.60
2018-05-21T13:38:43.798Z,30.10
2018-05-21T13:41:12.771Z,28.90
2018-05-21T13:43:40.938Z,28.90
2018-05-21T13:46:09.151Z,28.30
2018-05-21T13:48:38.089Z,27.60
2018-05-21T13:51:06.263Z,27.60
2018-05-21T13:53:34.445Z,27.50
2018-05-21T13:56:02.614Z,27.40
2018-05-21T13:58:30.800Z,27.30
2018-05-21T14:00:58.990Z,27.30
2018-05-21T14:03:27.946Z,27.20
2018-05-21T14:05:56.160Z,27.20
2018-05-21T14:08:25.157Z,27.20
2018-05-21T14:10:54.115Z,27.10
2018-05-21T14:13:22.330Z,27.10
2018-05-21T14:15:51.262Z,27.00
2018-05-21T14:18:19.444Z,27.00
2018-05-21T14:20:47.606Z,27.00
2018-05-21T14:23:15.774Z,27.00
2018-05-21T14:25:43.957Z,27.00
2018-05-21T14:28:12.214Z,27.00
2018-05-21T14:30:40.931Z,27.00
2018-05-21T14:33:09.200Z,26.90
2018-05-21T14:35:37.331Z,26.90
2018-05-21T14:38:05.530Z,26.90
2018-05-21T14:40:34.663Z,26.80
2018-05-21T14:43:04.238Z,26.80
2018-05-21T14:45:32.455Z,26.80
2018-05-21T14:48:01.412Z,26.80
2018-05-21T14:50:29.581Z,26.70
2018-05-21T14:52:57.762Z,26.70
2018-05-21T14:55:25.958Z,26.70
2018-05-21T14:57:54.942Z,26.60
2018-05-21T15:00:23.926Z,26.60
2018-05-21T15:02:52.114Z,26.60
2018-05-21T15:05:21.063Z,26.50
2018-05-21T15:07:49.271Z,26.50
2018-05-21T15:10:18.234Z,26.50
2018-05-21T15:12:46.407Z,26.40
2018-05-21T15:15:14.606Z,26.50
2018-05-21T15:17:44.417Z,26.50
2018-05-21T15:20:12.585Z,26.40
2018-05-21T15:23:26.038Z,28.40
2018-05-21T15:25:55.064Z,29.30
2018-05-21T15:28:23.428Z,29.20
2018-05-21T15:30:51.711Z,29.70
2018-05-21T15:33:19.964Z,29.70
2018-05-21T15:35:48.362Z,29.50
2018-05-21T15:38:17.479Z,29.10
2018-05-21T15:40:45.733Z,28.90
2018-05-21T15:43:14.085Z,28.60
2018-05-21T15:45:42.232Z,28.60
2018-05-21T15:48:11.355Z,28.60
2018-05-21T15:50:40.428Z,28.70
2018-05-21T15:53:09.357Z,28.70
2018-05-21T15:55:37.554Z,28.60
2018-05-21T15:58:05.763Z,28.60
2018-05-21T16:00:34.070Z,28.50
2018-05-21T16:03:06.073Z,28.30
2018-05-21T16:05:34.290Z,28.40
2018-05-21T16:08:03.283Z,28.20
2018-05-21T16:10:32.287Z,28.00
2018-05-21T16:13:00.546Z,28.00
2018-05-21T16:15:29.517Z,27.90
2018-05-21T16:17:57.936Z,27.90
2018-05-21T16:20:26.015Z,27.80
2018-05-21T16:22:58.462Z,27.70
2018-05-21T16:25:26.686Z,27.60
2018-05-21T16:27:54.993Z,27.70
2018-05-21T16:30:24.545Z,27.50
2018-05-21T16:32:52.799Z,27.50
2018-05-21T16:35:21.005Z,27.40
2018-05-21T16:37:50.658Z,27.40
2018-05-21T16:40:22.150Z,27.20
2018-05-21T16:42:50.487Z,27.20
2018-05-21T16:45:18.850Z,27.30
2018-05-21T16:47:47.359Z,27.20
2018-05-21T16:50:15.478Z,27.20
2018-05-21T16:52:43.732Z,27.10
2018-05-21T16:55:11.962Z,27.20
2018-05-21T16:57:40.971Z,27.10
2018-05-21T17:00:09.583Z,27.10
2018-05-21T17:02:38.550Z,26.90
2018-05-21T17:05:07.817Z,26.80
2018-05-21T17:07:37.336Z,26.60
2018-05-21T17:10:06.414Z,26.40
2018-05-21T17:12:37.398Z,26.40
2018-05-21T17:15:05.683Z,26.30
2018-05-21T17:17:34.073Z,26.10
2018-05-21T17:20:02.382Z,26.00
2018-05-21T17:22:30.615Z,25.90
2018-05-21T17:24:58.993Z,25.80
2018-05-21T17:27:32.616Z,25.70
2018-05-21T17:30:01.105Z,25.60
2018-05-21T17:32:35.493Z,25.70
2018-05-21T17:35:04.868Z,25.70
2018-05-21T17:37:41.129Z,25.70
2018-05-21T17:40:10.256Z,25.70
2018-05-21T17:42:38.585Z,25.70
2018-05-21T17:45:07.286Z,25.70
2018-05-21T17:47:41.867Z,25.70
2018-05-21T17:50:10.487Z,25.60
2018-05-21T17:52:43.393Z,25.60
2018-05-21T17:55:17.520Z,25.70
2018-05-21T17:57:46.749Z,25.80
2018-05-21T18:00:15.194Z,25.80
2018-05-21T18:02:44.827Z,25.80
2018-05-21T18:05:20.085Z,25.70
2018-05-21T18:07:50.165Z,25.60
2018-05-21T18:10:18.417Z,25.60
2018-05-21T18:12:47.501Z,25.60
2018-05-21T18:15:15.846Z,25.50
2018-05-21T18:17:44.889Z,25.40
2018-05-21T18:20:13.173Z,25.40
2018-05-21T18:22:41.438Z,25.30
2018-05-21T18:25:09.668Z,25.20
2018-05-21T18:27:42.887Z,25.10
2018-05-21T18:30:12.085Z,25.10
2018-05-21T18:32:41.014Z,25.10
2018-05-21T18:35:09.249Z,25.10
2018-05-21T18:37:41.422Z,25.10
2018-05-21T18:40:09.660Z,25.20
2018-05-21T18:42:41.894Z,25.20
2018-05-21T18:45:15.363Z,25.20
2018-05-21T18:47:44.946Z,25.20
2018-05-21T18:50:22.189Z,25.20
2018-05-21T18:52:50.593Z,25.20
2018-05-21T18:55:19.683Z,25.10
2018-05-21T18:57:47.997Z,25.10
2018-05-21T19:00:21.486Z,25.10
2018-05-21T19:02:51.722Z,25.10
2018-05-21T19:05:20.431Z,25.10
2018-05-21T19:07:55.129Z,25.00
2018-05-21T19:10:29.081Z,25.00
2018-05-21T19:13:00.865Z,25.00
2018-05-21T19:15:29.664Z,24.90
2018-05-21T19:17:58.027Z,24.90
2018-05-21T19:20:32.284Z,24.80
2018-05-21T19:23:01.310Z,24.80
2018-05-21T19:25:29.742Z,24.70
2018-05-21T19:28:02.506Z,24.60
2018-05-21T19:30:30.786Z,24.60
2018-05-21T19:33:04.028Z,24.50
2018-05-21T19:35:32.417Z,24.50
2018-05-21T19:38:02.356Z,24.40
2018-05-21T19:40:30.715Z,24.30
2018-05-21T19:42:59.726Z,24.30
2018-05-21T19:45:32.278Z,24.20
2018-05-21T19:48:01.441Z,24.00
2018-05-21T19:50:29.749Z,23.90
2018-05-21T19:52:58.730Z,23.80
2018-05-21T19:55:31.664Z,23.70
2018-05-21T19:57:59.984Z,23.80
2018-05-21T20:00:29.958Z,23.70
2018-05-21T20:02:59.166Z,23.70
2018-05-21T20:05:27.599Z,23.70
2018-05-21T20:07:56.744Z,23.60
2018-05-21T20:10:25.742Z,23.50
2018-05-21T20:12:54.086Z,23.50
2018-05-21T20:15:22.339Z,23.40
2018-05-21T20:17:51.594Z,23.30
2018-05-21T20:20:32.359Z,23.30
2018-05-21T20:23:00.727Z,23.20
2018-05-21T20:25:29.943Z,23.10
2018-05-21T20:27:59.328Z,23.10
2018-05-21T20:30:29.642Z,23.10
2018-05-21T20:32:58.959Z,23.10
2018-05-21T20:35:28.864Z,23.10
2018-05-21T20:38:01.276Z,23.00
2018-05-21T20:40:30.311Z,23.00
2018-05-21T20:43:02.393Z,23.00
2018-05-21T20:45:30.666Z,23.00
2018-05-21T20:47:59.046Z,22.90
2018-05-21T20:50:27.371Z,22.90
2018-05-21T20:52:58.591Z,22.80
2018-05-21T20:55:29.301Z,22.70
2018-05-21T20:57:59.711Z,22.70
2018-05-21T21:00:36.983Z,22.60
2018-05-21T21:03:06.266Z,22.70
2018-05-21T21:05:34.493Z,22.60
2018-05-21T21:08:03.772Z,22.60
2018-05-21T21:10:41.125Z,22.50
2018-05-21T21:13:14.085Z,22.50
2018-05-21T21:15:46.931Z,22.40
2018-05-21T21:18:15.220Z,22.30
2018-05-21T21:20:43.516Z,22.30
2018-05-21T21:23:12.545Z,22.20
2018-05-21T21:25:41.722Z,22.20
2018-05-21T21:28:10.355Z,22.20
2018-05-21T21:30:41.275Z,22.10
2018-05-21T21:33:10.581Z,22.10
2018-05-21T21:35:38.819Z,22.10
2018-05-21T21:38:07.923Z,22.10
2018-05-21T21:40:37.073Z,22.10
2018-05-21T21:43:05.368Z,22.00
2018-05-21T21:45:34.465Z,21.90
2018-05-21T21:48:03.511Z,21.90
2018-05-21T21:50:31.731Z,21.80
2018-05-21T21:53:01.729Z,21.80
2018-05-21T21:55:30.013Z,21.70
2018-05-21T21:57:58.315Z,21.70
2018-05-21T22:00:27.525Z,21.60
2018-05-21T22:02:55.935Z,21.60
2018-05-21T22:05:25.093Z,21.60
2018-05-21T22:07:54.142Z,21.60
2018-05-21T22:10:23.364Z,21.50
2018-05-21T22:12:52.549Z,21.40
2018-05-21T22:15:20.839Z,21.50
2018-05-21T22:17:49.968Z,21.40
2018-05-21T22:20:18.277Z,21.40
2018-05-21T22:22:46.713Z,21.40
2018-05-21T22:25:15.960Z,21.40
2018-05-21T22:27:45.058Z,21.30
2018-05-21T22:30:15.106Z,21.30
2018-05-21T22:32:44.055Z,21.30
2018-05-21T22:35:16.843Z,21.20
2018-05-21T22:37:45.333Z,21.20
2018-05-21T22:40:18.684Z,21.10
2018-05-21T22:42:48.483Z,21.10
2018-05-21T22:45:17.600Z,21.20
2018-05-21T22:47:46.443Z,21.10
2018-05-21T22:50:16.110Z,21.10
2018-05-21T22:52:45.540Z,21.00
2018-05-21T22:55:14.048Z,21.00
2018-05-21T22:57:43.476Z,21.00
2018-05-21T23:00:11.786Z,21.00
2018-05-21T23:02:40.650Z,21.00
2018-05-21T23:05:09.019Z,21.00
2018-05-21T23:07:37.353Z,20.90
2018-05-21T23:10:08.633Z,20.90
2018-05-21T23:12:37.220Z,20.90
2018-05-21T23:15:05.662Z,20.90
2018-05-21T23:17:39.223Z,20.80
2018-05-21T23:20:08.136Z,20.80
2018-05-21T23:22:45.080Z,20.80
2018-05-21T23:25:13.590Z,20.80
2018-05-21T23:27:43.117Z,20.70
2018-05-21T23:30:12.385Z,20.70
2018-05-21T23:32:42.481Z,20.70
2018-05-21T23:35:10.793Z,20.70
2018-05-21T23:37:39.146Z,20.70
2018-05-21T23:40:07.547Z,20.70
2018-05-21T23:42:37.629Z,20.60
2018-05-21T23:45:06.116Z,20.60
2018-05-21T23:47:34.855Z,20.60
2018-05-21T23:50:08.222Z,20.60
2018-05-21T23:52:42.496Z,20.50
2018-05-21T23:55:14.114Z,20.50
2018-05-21T23:57:55.103Z,20.50
